Have a Safe July 4th! 

Flight Track Log - Related Links

Times and Time Zones

All times are in EDT time to prevent confusion due to time zone crossing. See the ANA531 flight status page for this flight to view local times or setup timezone preferences in your user account.

Time Position Orientation Groundspeed Altitude Reporting Facility
EDT Latitude Longitude Course Direction KTS MPH feet Rate Location/Type
Fri 06:49:00 PM 35.4512 139.2921 256° West  Level Estimated
Fri 06:50:00 PM 35.4257 139.1704 256° West  Level Estimated
Fri 06:51:00 PM 35.4000 139.0487 256° West  Level Estimated
Fri 06:52:00 PM 35.3741 138.9272 255° West  Level Estimated
Fri 06:53:00 PM 35.3482 138.8057 255° West  Level Estimated
Fri 06:54:00 PM 35.3222 138.6843 255° West  Level Estimated
Fri 06:55:00 PM 35.2960 138.5629 255° West  Level Estimated
Fri 06:56:00 PM 35.2697 138.4417 255° West  Level Estimated
Fri 06:57:00 PM 35.2433 138.3205 255° West  Level Estimated
Fri 06:58:00 PM 35.2167 138.1994 255° West  Level Estimated
Fri 06:59:00 PM 35.1901 138.0784 255° West  Level Estimated
Fri 07:00:00 PM 35.1633 137.9575 255° West  Level Estimated
Fri 07:01:00 PM 35.1364 137.8367 255° West  Level Estimated
Fri 07:02:00 PM 35.1094 137.7159 255° West  Level Estimated
Fri 07:03:00 PM 35.0822 137.5952 255° West  Level Estimated
Fri 07:04:00 PM 35.0550 137.4746 255° West  Level Estimated
Fri 07:05:00 PM 35.0276 137.3540 255° West  Level Estimated
Fri 07:06:00 PM 35.0001 137.2336 254° West  Level Estimated
Fri 07:07:00 PM 34.9725 137.1132 254° West  Level Estimated
Fri 07:08:00 PM 34.9448 136.9929 254° West  Level Estimated
Fri 07:09:00 PM 34.9169 136.8727 254° West  Level Estimated
Fri 07:10:00 PM 34.8889 136.7526 254° West  Level Estimated
Fri 07:11:00 PM 34.8608 136.6326 254° West  Level Estimated
Fri 07:12:00 PM 34.8326 136.5126 254° West  Level Estimated
Fri 07:13:00 PM 34.8043 136.3927 254° West  Level Estimated
Fri 07:14:00 PM 34.7759 136.2729 254° West  Level Estimated
Fri 07:15:00 PM 34.7473 136.1532 254° West  Level Estimated
Fri 07:16:00 PM 34.7186 136.0336 254° West  Level Estimated
Fri 07:17:00 PM 34.6898 135.9141 254° West  Level Estimated
Fri 07:18:00 PM 34.6609 135.7946 254° West  Level Estimated
Fri 07:19:00 PM 34.6319 135.6752 254° West  Level Estimated
Fri 07:20:00 PM 34.6028 135.5559 254° West  Level Estimated
Fri 07:21:00 PM 34.5735 135.4367 253° West  Level Estimated
Fri 07:22:00 PM 34.5441 135.3176 253° West  Level Estimated
Fri 07:23:00 PM 34.5146 135.1986 253° West  Level Estimated
Fri 07:24:00 PM 34.4851 135.0796 253° West  Level Estimated
Fri 07:25:00 PM 34.4553 134.9607 253° West  Level Estimated
Fri 07:26:00 PM 34.4255 134.8419 253° West  Level Estimated
Fri 07:27:00 PM 34.3955 134.7232 253° West  Level Estimated
Fri 07:28:00 PM 34.3655 134.6046 253° West  Level Estimated
Fri 07:29:00 PM 34.3353 134.4861 253° West  Level Estimated
Fri 07:30:00 PM 34.3050 134.3676 253° West  Level Estimated
Fri 07:31:00 PM 34.2746 134.2493 253° West  Level Estimated
Fri 07:32:00 PM 34.2441 134.1310 253° West  Level Estimated
Fri 07:33:00 PM 34.2142 134.0156 253° West  Level Estimated
Fri 07:34:00 PM 34.2142 134.0156 228° Southwest  Level Estimated
Fri 07:35:00 PM 34.2142 134.0156 228° Southwest  Level Estimated
Fri 07:36:00 PM 34.2142 134.0156 228° Southwest  Level Estimated
Fri 07:37:00 PM 34.2142 134.0156 228° Southwest  Level Estimated
Fri 07:38:00 PM 34.2142 134.0156 228° Southwest  Level Estimated
Fri 07:39:00 PM 34.2142 134.0156 228° Southwest  Level Estimated
Fri 07:40:00 PM 34.2142 134.0156 228° Southwest  Level Estimated
Fri 07:41:00 PM 34.2142 134.0156 228° Southwest  Level Estimated
Fri 07:42:00 PM 34.2142 134.0156 228° Southwest  Level Estimated
Fri 07:43:00 PM 34.2142 134.0156 228° Southwest  Level Estimated
Fri 07:44:00 PM 34.2142 134.0156 228° Southwest  Level Estimated
Fri 07:45:00 PM 34.2142 134.0156 228° Southwest  Level Estimated
Fri 07:46:00 PM 34.2142 134.0156 228° Southwest  Level Estimated
Fri 07:47:00 PM 34.2142 134.0156 228° Southwest  Level Estimated
Fri 07:48:00 PM 34.2142 134.0156 228° Southwest  Level Estimated
Fri 07:49:00 PM 34.2142 134.0156 228° Southwest  Level Estimated

Login

Don't have an account? Register now (free) for customized features, flight alerts, and more!